createdAt,value
2018-09-21T00:00:07.191Z,16.69
2018-09-21T00:02:36.276Z,16.73
2018-09-21T00:05:05.728Z,16.78
2018-09-21T00:07:35.064Z,16.81
2018-09-21T00:10:04.575Z,16.84
2018-09-21T00:12:33.919Z,16.87
2018-09-21T00:15:03.135Z,16.73
2018-09-21T00:17:32.415Z,16.89
2018-09-21T00:20:01.379Z,16.81
2018-09-21T00:22:30.556Z,16.73
2018-09-21T00:24:59.583Z,16.74
2018-09-21T00:27:28.891Z,16.80
2018-09-21T00:29:57.987Z,16.79
2018-09-21T00:32:27.283Z,16.79
2018-09-21T00:34:56.268Z,16.78
2018-09-21T00:37:25.579Z,16.75
2018-09-21T00:39:54.729Z,16.73
2018-09-21T00:42:23.872Z,16.69
2018-09-21T00:44:53.074Z,16.65
2018-09-21T00:47:22.246Z,16.75
2018-09-21T00:49:51.531Z,16.73
2018-09-21T00:52:20.908Z,16.73
2018-09-21T00:54:50.169Z,16.70
2018-09-21T00:57:19.171Z,16.61
2018-09-21T00:59:48.180Z,16.63
2018-09-21T01:02:17.482Z,16.65
2018-09-21T01:04:46.694Z,16.55
2018-09-21T01:07:16.203Z,16.68
2018-09-21T01:09:45.494Z,16.66
2018-09-21T01:12:14.896Z,16.60
2018-09-21T01:14:43.830Z,16.50
2018-09-21T01:17:12.830Z,16.48
2018-09-21T01:19:42.172Z,16.43
2018-09-21T01:22:11.376Z,16.44
2018-09-21T01:24:40.620Z,16.48
2018-09-21T01:27:14.280Z,16.53
2018-09-21T01:29:44.140Z,16.51
2018-09-21T01:32:13.594Z,16.45
2018-09-21T01:34:43.111Z,16.50
2018-09-21T01:37:12.532Z,16.40
2018-09-21T01:39:41.887Z,16.46
2018-09-21T01:42:11.142Z,16.31
2018-09-21T01:44:40.448Z,16.40
2018-09-21T01:47:09.763Z,16.30
2018-09-21T01:49:38.913Z,16.21
2018-09-21T01:52:08.160Z,16.23
2018-09-21T01:54:37.040Z,16.18
2018-09-21T01:57:06.331Z,16.22
2018-09-21T01:59:35.639Z,16.28
2018-09-21T02:02:04.771Z,16.34
2018-09-21T02:04:40.891Z,16.33
2018-09-21T02:07:12.047Z,16.34
2018-09-21T02:09:41.411Z,16.33
2018-09-21T02:12:10.880Z,16.27
2018-09-21T02:14:40.107Z,16.20
2018-09-21T02:17:09.528Z,16.16
2018-09-21T02:19:38.631Z,16.15
2018-09-21T02:22:07.920Z,16.12
2018-09-21T02:24:37.274Z,16.18
2018-09-21T02:27:06.138Z,16.19
2018-09-21T02:29:35.405Z,16.22
2018-09-21T02:32:04.608Z,16.24
2018-09-21T02:34:33.657Z,16.37
2018-09-21T02:37:02.894Z,16.31
2018-09-21T02:39:32.048Z,16.39
2018-09-21T02:42:01.445Z,16.45
2018-09-21T02:44:30.665Z,16.63
2018-09-21T02:46:59.927Z,16.71
2018-09-21T02:49:29.039Z,16.83
2018-09-21T02:51:58.272Z,16.89
2018-09-21T02:54:27.315Z,16.95
2018-09-21T02:56:56.472Z,16.91
2018-09-21T02:59:25.391Z,17.01
2018-09-21T03:01:54.510Z,17.01
2018-09-21T03:04:23.899Z,17.04
2018-09-21T03:06:53.311Z,17.09
2018-09-21T03:09:22.556Z,17.10
2018-09-21T03:11:51.404Z,17.12
2018-09-21T03:14:20.612Z,17.08
2018-09-21T03:16:50.014Z,17.14
2018-09-21T03:19:19.279Z,17.12
2018-09-21T03:21:48.182Z,17.10
2018-09-21T03:24:17.685Z,17.08
2018-09-21T03:26:46.779Z,17.00
2018-09-21T03:29:15.691Z,17.02
2018-09-21T03:31:45.011Z,16.81
2018-09-21T03:34:14.195Z,16.67
2018-09-21T03:36:43.404Z,16.54
2018-09-21T03:39:12.581Z,16.43
2018-09-21T03:41:41.923Z,16.28
2018-09-21T03:44:11.160Z,16.16
2018-09-21T03:46:40.394Z,16.01
2018-09-21T03:49:09.699Z,16.09
2018-09-21T03:51:39.161Z,16.09
2018-09-21T03:54:07.951Z,16.00
2018-09-21T03:56:37.891Z,15.85
2018-09-21T03:59:07.129Z,15.71
2018-09-21T04:01:36.564Z,15.63
2018-09-21T04:04:05.920Z,15.59
2018-09-21T04:06:35.057Z,15.54
2018-09-21T04:09:05.115Z,15.52
2018-09-21T04:11:33.987Z,15.51
2018-09-21T04:14:03.471Z,15.48
2018-09-21T04:16:32.889Z,15.49
2018-09-21T04:19:02.212Z,15.51
2018-09-21T04:21:31.564Z,15.56
2018-09-21T04:24:00.921Z,15.57
2018-09-21T04:26:30.257Z,15.61
2018-09-21T04:28:59.608Z,15.56
2018-09-21T04:31:28.722Z,15.53
2018-09-21T04:33:57.859Z,15.70
2018-09-21T04:36:27.011Z,15.78
2018-09-21T04:38:56.296Z,15.88
2018-09-21T04:41:25.506Z,15.86
2018-09-21T04:43:54.832Z,15.90
2018-09-21T04:46:23.979Z,15.87
2018-09-21T04:48:52.933Z,15.98
2018-09-21T04:51:22.331Z,16.13
2018-09-21T04:53:51.392Z,16.26
2018-09-21T04:56:20.555Z,16.25
2018-09-21T04:58:49.816Z,16.33
2018-09-21T05:01:19.293Z,16.47
2018-09-21T05:03:48.625Z,16.50
2018-09-21T05:06:17.985Z,16.60
2018-09-21T05:08:47.126Z,16.74
2018-09-21T05:11:16.354Z,16.82
2018-09-21T05:13:45.546Z,16.90
2018-09-21T05:16:14.917Z,17.03
2018-09-21T05:18:44.016Z,17.21
2018-09-21T05:21:13.302Z,17.17
2018-09-21T05:23:42.767Z,17.20
2018-09-21T05:26:11.952Z,17.25
2018-09-21T05:28:41.338Z,17.32
2018-09-21T05:31:10.804Z,17.48
2018-09-21T05:33:40.063Z,17.59
2018-09-21T05:36:09.316Z,17.69
2018-09-21T05:38:38.562Z,17.74
2018-09-21T05:41:07.913Z,17.79
2018-09-21T05:43:37.232Z,17.92
2018-09-21T05:46:06.615Z,17.99
2018-09-21T05:48:35.901Z,18.09
2018-09-21T05:51:05.368Z,18.17
2018-09-21T05:53:34.775Z,18.28
2018-09-21T05:56:04.192Z,18.36
2018-09-21T05:58:33.307Z,18.43
2018-09-21T06:01:02.703Z,18.49
2018-09-21T06:03:31.958Z,18.51
2018-09-21T06:06:01.003Z,18.61
2018-09-21T06:08:30.055Z,18.69
2018-09-21T06:10:59.284Z,18.66
2018-09-21T06:13:28.477Z,18.74
2018-09-21T06:15:57.739Z,18.83
2018-09-21T06:18:26.963Z,18.92
2018-09-21T06:20:56.131Z,19.00
2018-09-21T06:23:25.115Z,19.06
2018-09-21T06:25:54.180Z,19.03
2018-09-21T06:28:23.316Z,19.07
2018-09-21T06:30:52.499Z,19.12
2018-09-21T06:33:21.527Z,19.21
2018-09-21T06:35:50.743Z,19.33
2018-09-21T06:38:19.708Z,19.45
2018-09-21T06:40:49.035Z,19.53
2018-09-21T06:43:18.149Z,19.69
2018-09-21T06:45:47.483Z,19.84
2018-09-21T06:48:16.490Z,19.91
2018-09-21T06:50:45.817Z,20.02
2018-09-21T06:53:15.171Z,20.11
2018-09-21T06:55:44.252Z,20.27
2018-09-21T06:58:13.196Z,20.39
2018-09-21T07:00:42.268Z,20.48
2018-09-21T07:03:11.447Z,20.55
2018-09-21T07:05:40.867Z,20.67
2018-09-21T07:08:10.195Z,20.83
2018-09-21T07:10:39.355Z,20.96
2018-09-21T07:13:08.804Z,21.13
2018-09-21T07:15:37.943Z,21.31
2018-09-21T07:18:07.166Z,21.43
2018-09-21T07:20:36.295Z,21.42
2018-09-21T07:23:05.464Z,21.48
2018-09-21T07:25:34.498Z,21.29
2018-09-21T07:28:03.897Z,21.47
2018-09-21T07:30:33.451Z,21.50
2018-09-21T07:33:02.898Z,21.80
2018-09-21T07:35:32.229Z,21.93
2018-09-21T07:38:01.427Z,22.14
2018-09-21T07:40:30.692Z,22.60
2018-09-21T07:42:59.953Z,23.13
2018-09-21T07:45:28.900Z,23.62
2018-09-21T07:47:58.123Z,24.14
2018-09-21T07:50:27.271Z,24.14
2018-09-21T07:52:56.569Z,24.42
2018-09-21T07:55:25.825Z,24.48
2018-09-21T07:57:55.066Z,24.17
2018-09-21T08:00:25.108Z,24.19
2018-09-21T08:02:54.345Z,24.36
2018-09-21T08:05:27.907Z,24.53
2018-09-21T08:07:57.282Z,24.62
2018-09-21T08:10:26.478Z,24.74
2018-09-21T08:12:55.833Z,24.73
2018-09-21T08:15:25.209Z,24.58
2018-09-21T08:17:54.563Z,24.56
2018-09-21T08:20:23.941Z,24.43
2018-09-21T08:22:53.288Z,24.52
2018-09-21T08:25:22.463Z,24.65
2018-09-21T08:27:51.448Z,24.75
2018-09-21T08:30:20.680Z,24.92
2018-09-21T08:32:50.223Z,25.01
2018-09-21T08:35:19.412Z,25.09
2018-09-21T08:37:48.491Z,25.07
2018-09-21T08:40:17.659Z,24.94
2018-09-21T08:42:47.020Z,25.21
2018-09-21T08:45:16.165Z,25.22
2018-09-21T08:47:45.456Z,25.35
2018-09-21T08:50:14.263Z,25.31
2018-09-21T08:52:43.483Z,25.30
2018-09-21T08:55:12.736Z,25.48
2018-09-21T08:57:41.985Z,25.17
2018-09-21T09:00:11.221Z,25.17
2018-09-21T09:02:40.476Z,25.15
2018-09-21T09:05:09.759Z,25.37
2018-09-21T09:07:39.071Z,25.63
2018-09-21T09:10:08.240Z,25.65
2018-09-21T09:12:37.471Z,25.57
2018-09-21T09:15:06.904Z,25.67
2018-09-21T09:17:36.171Z,25.72
2018-09-21T09:20:05.486Z,25.73
2018-09-21T09:22:34.683Z,25.72
2018-09-21T09:25:04.227Z,25.91
2018-09-21T09:27:33.372Z,25.77
2018-09-21T09:30:02.787Z,26.06
2018-09-21T09:32:31.813Z,26.23
2018-09-21T09:35:01.409Z,26.27
2018-09-21T09:37:30.763Z,26.25
2018-09-21T09:39:59.560Z,26.33
2018-09-21T09:42:28.855Z,26.39
2018-09-21T09:44:57.851Z,26.46
2018-09-21T09:47:27.209Z,26.82
2018-09-21T09:49:56.232Z,26.97
2018-09-21T09:52:25.593Z,27.19
2018-09-21T09:54:54.838Z,27.48
2018-09-21T09:57:23.931Z,27.84
2018-09-21T09:59:53.100Z,28.32
2018-09-21T10:02:22.334Z,28.93
2018-09-21T10:04:51.723Z,29.21
2018-09-21T10:07:20.875Z,29.45
2018-09-21T10:09:49.863Z,29.96
2018-09-21T10:12:19.009Z,30.38
2018-09-21T10:14:48.346Z,30.94
2018-09-21T10:17:17.459Z,31.73
2018-09-21T10:19:46.548Z,32.01
2018-09-21T10:22:15.639Z,32.81
2018-09-21T10:24:44.839Z,33.46
2018-09-21T10:27:14.214Z,34.44
2018-09-21T10:29:43.443Z,35.27
2018-09-21T10:32:12.679Z,36.12
2018-09-21T10:34:41.995Z,36.91
2018-09-21T10:37:11.226Z,36.67
2018-09-21T10:39:40.453Z,37.04
2018-09-21T10:42:09.912Z,37.62
2018-09-21T10:44:39.166Z,38.42
2018-09-21T10:47:08.594Z,38.46
2018-09-21T10:49:37.683Z,38.25
2018-09-21T10:52:06.579Z,37.95
2018-09-21T10:54:35.819Z,38.13
2018-09-21T10:57:05.071Z,37.95
2018-09-21T10:59:34.214Z,37.67
2018-09-21T11:02:03.472Z,37.94
2018-09-21T11:04:32.921Z,38.66
2018-09-21T11:07:02.148Z,38.53
2018-09-21T11:09:31.499Z,38.08
2018-09-21T11:12:00.752Z,38.14
2018-09-21T11:14:30.007Z,38.71
2018-09-21T11:16:59.456Z,39.65
2018-09-21T11:19:28.693Z,39.92
2018-09-21T11:21:57.840Z,38.64
2018-09-21T11:24:27.171Z,39.33
2018-09-21T11:26:56.352Z,39.05
2018-09-21T11:29:25.548Z,38.92
2018-09-21T11:31:54.812Z,37.63
2018-09-21T11:34:24.179Z,37.27
2018-09-21T11:36:53.430Z,38.11
2018-09-21T11:39:22.793Z,38.83
2018-09-21T11:41:51.709Z,40.09
2018-09-21T11:44:20.982Z,39.83
2018-09-21T11:46:50.714Z,39.41
2018-09-21T11:49:19.824Z,40.00
2018-09-21T11:51:49.019Z,40.08
2018-09-21T11:54:18.150Z,40.11
2018-09-21T11:56:47.329Z,40.32
2018-09-21T11:59:16.777Z,40.95
2018-09-21T12:01:46.139Z,41.07
2018-09-21T12:04:15.537Z,41.06
2018-09-21T12:06:44.550Z,40.96
2018-09-21T12:09:13.967Z,40.39
2018-09-21T12:11:42.980Z,40.42
2018-09-21T12:14:12.358Z,39.97
2018-09-21T12:16:41.368Z,38.93
2018-09-21T12:19:10.633Z,38.35
2018-09-21T12:21:39.856Z,38.04
2018-09-21T12:24:09.346Z,37.47
2018-09-21T12:26:38.255Z,36.90
2018-09-21T12:29:07.484Z,36.96
2018-09-21T12:31:36.520Z,36.93
2018-09-21T12:34:05.939Z,36.33
2018-09-21T12:36:35.221Z,35.17
2018-09-21T12:39:05.775Z,34.07
2018-09-21T12:41:34.839Z,33.21
2018-09-21T12:44:04.044Z,32.80
2018-09-21T12:46:33.476Z,32.54
2018-09-21T12:49:05.779Z,32.29
2018-09-21T12:51:35.805Z,31.93
2018-09-21T12:54:05.137Z,32.02
2018-09-21T12:56:34.453Z,32.08
2018-09-21T12:59:03.939Z,32.82
2018-09-21T13:01:33.116Z,33.47
2018-09-21T13:04:02.343Z,33.90
2018-09-21T13:06:31.740Z,34.18
2018-09-21T13:09:01.088Z,34.30
2018-09-21T13:11:30.448Z,34.13
2018-09-21T13:13:59.631Z,33.82
2018-09-21T13:16:28.927Z,33.63
2018-09-21T13:18:58.073Z,33.44
2018-09-21T13:21:27.027Z,33.22
2018-09-21T13:23:56.235Z,32.23
2018-09-21T13:26:25.403Z,31.71
2018-09-21T13:28:54.631Z,31.26
2018-09-21T13:31:23.807Z,31.01
2018-09-21T13:33:52.784Z,30.28
2018-09-21T13:36:21.826Z,30.11
2018-09-21T13:38:51.098Z,29.92
2018-09-21T13:41:20.600Z,29.91
2018-09-21T13:43:50.047Z,29.88
2018-09-21T13:46:19.248Z,29.78
2018-09-21T13:48:48.123Z,29.67
2018-09-21T13:51:17.484Z,29.57
2018-09-21T13:53:46.567Z,29.40
2018-09-21T13:56:15.757Z,29.35
2018-09-21T13:58:45.037Z,29.20
2018-09-21T14:01:14.171Z,29.17
2018-09-21T14:03:43.923Z,28.93
2018-09-21T14:06:13.323Z,28.73
2018-09-21T14:08:42.464Z,28.57
2018-09-21T14:11:11.724Z,28.40
2018-09-21T14:13:41.073Z,28.29
2018-09-21T14:16:10.424Z,28.20
2018-09-21T14:18:39.354Z,28.10
2018-09-21T14:21:08.720Z,28.06
2018-09-21T14:23:37.801Z,28.07
2018-09-21T14:26:07.222Z,28.05
2018-09-21T14:28:36.471Z,28.04
2018-09-21T14:31:05.817Z,28.00
2018-09-21T14:33:34.960Z,27.94
2018-09-21T14:36:03.951Z,27.89
2018-09-21T14:38:33.000Z,27.77
2018-09-21T14:41:02.340Z,27.69
2018-09-21T14:43:31.587Z,27.65
2018-09-21T14:46:00.739Z,27.56
2018-09-21T14:48:30.227Z,27.44
2018-09-21T14:50:59.124Z,27.31
2018-09-21T14:53:28.326Z,27.20
2018-09-21T14:55:57.715Z,27.09
2018-09-21T14:58:26.905Z,27.05
2018-09-21T15:00:56.107Z,26.88
2018-09-21T15:03:25.264Z,26.79
2018-09-21T15:05:54.607Z,26.64
2018-09-21T15:08:23.766Z,26.55
2018-09-21T15:10:52.728Z,26.47
2018-09-21T15:13:21.948Z,26.35
2018-09-21T15:15:50.984Z,26.30
2018-09-21T15:18:20.344Z,26.27
2018-09-21T15:20:49.703Z,26.26
2018-09-21T15:23:18.888Z,26.21
2018-09-21T15:25:48.192Z,26.25
2018-09-21T15:28:17.505Z,26.20
2018-09-21T15:30:46.585Z,26.22
2018-09-21T15:33:15.875Z,26.22
2018-09-21T15:35:45.127Z,26.13
2018-09-21T15:38:14.381Z,26.11
2018-09-21T15:40:43.832Z,26.09
2018-09-21T15:43:13.176Z,26.03
2018-09-21T15:45:42.204Z,26.10
2018-09-21T15:48:11.234Z,26.06
2018-09-21T15:50:40.476Z,26.08
2018-09-21T15:53:09.512Z,25.99
2018-09-21T15:55:38.615Z,25.99
2018-09-21T15:58:07.953Z,25.89
2018-09-21T16:00:37.527Z,25.84
2018-09-21T16:03:06.902Z,25.76
2018-09-21T16:05:36.248Z,25.69
2018-09-21T16:08:05.712Z,25.57
2018-09-21T16:10:34.714Z,25.47
2018-09-21T16:13:04.079Z,25.31
2018-09-21T16:15:33.444Z,25.25
2018-09-21T16:18:02.860Z,25.15
2018-09-21T16:20:32.263Z,25.07
2018-09-21T16:23:01.499Z,24.93
2018-09-21T16:25:30.490Z,24.89
2018-09-21T16:27:59.616Z,24.64
2018-09-21T16:30:28.882Z,24.52
2018-09-21T16:32:58.251Z,24.52
2018-09-21T16:35:27.411Z,24.38
2018-09-21T16:37:56.403Z,24.31
2018-09-21T16:40:25.449Z,24.15
2018-09-21T16:42:54.771Z,23.98
2018-09-21T16:45:24.065Z,23.80
2018-09-21T16:47:53.421Z,23.65
2018-09-21T16:50:22.526Z,23.48
2018-09-21T16:52:51.920Z,23.37
2018-09-21T16:55:22.227Z,23.27
2018-09-21T16:57:52.443Z,23.24
2018-09-21T17:00:21.811Z,23.12
2018-09-21T17:02:51.675Z,23.10
2018-09-21T17:05:20.895Z,23.05
2018-09-21T17:07:50.166Z,23.00
2018-09-21T17:10:19.332Z,22.97
2018-09-21T17:12:48.447Z,22.95
2018-09-21T17:15:17.783Z,22.87
2018-09-21T17:17:46.832Z,22.82
2018-09-21T17:20:16.122Z,22.78
2018-09-21T17:22:45.316Z,22.71
2018-09-21T17:25:14.592Z,22.67
2018-09-21T17:27:43.752Z,22.60
2018-09-21T17:32:41.010Z,22.53
2018-09-21T17:35:10.336Z,22.39
2018-09-21T17:37:39.328Z,22.34
2018-09-21T17:40:08.562Z,22.11
2018-09-21T17:42:37.744Z,22.23
2018-09-21T17:45:07.070Z,22.17
2018-09-21T17:47:36.475Z,22.09
2018-09-21T17:50:05.905Z,22.11
2018-09-21T17:52:35.354Z,22.15
2018-09-21T17:55:05.651Z,22.11
2018-09-21T17:57:35.075Z,22.05
2018-09-21T18:00:05.331Z,21.97
2018-09-21T18:02:34.463Z,21.86
2018-09-21T18:05:03.796Z,21.72
2018-09-21T18:07:33.370Z,21.72
2018-09-21T18:10:02.916Z,21.68
2018-09-21T18:12:32.232Z,21.61
2018-09-21T18:15:02.784Z,21.54
2018-09-21T18:17:33.262Z,21.47
2018-09-21T18:20:02.979Z,21.40
2018-09-21T18:22:32.402Z,21.36
2018-09-21T18:25:02.399Z,21.30
2018-09-21T18:27:32.498Z,21.26
2018-09-21T18:30:01.589Z,21.22
2018-09-21T18:32:30.979Z,21.16
2018-09-21T18:35:00.431Z,21.18
2018-09-21T18:37:29.816Z,21.15
2018-09-21T18:40:00.468Z,21.10
2018-09-21T18:42:29.515Z,21.16
2018-09-21T18:44:58.719Z,21.11
2018-09-21T18:47:30.341Z,21.05
2018-09-21T18:49:59.883Z,21.02
2018-09-21T18:52:32.409Z,21.00
2018-09-21T18:55:05.599Z,20.95
2018-09-21T18:57:35.734Z,20.85
2018-09-21T19:00:04.991Z,20.78
2018-09-21T19:02:34.367Z,20.71
2018-09-21T19:05:03.818Z,20.68
2018-09-21T19:07:33.613Z,20.63
2018-09-21T19:10:03.112Z,20.59
2018-09-21T19:12:33.202Z,20.67
2018-09-21T19:15:03.417Z,20.61
2018-09-21T19:17:32.884Z,20.60
2018-09-21T19:20:01.976Z,20.55
2018-09-21T19:22:31.120Z,20.53
2018-09-21T19:25:00.510Z,20.49
2018-09-21T19:27:29.625Z,20.46
2018-09-21T19:29:58.787Z,20.37
2018-09-21T19:32:28.043Z,20.25
2018-09-21T19:34:57.398Z,20.18
2018-09-21T19:37:26.867Z,20.19
2018-09-21T19:39:56.311Z,20.15
2018-09-21T19:42:25.657Z,20.10
2018-09-21T19:44:55.092Z,20.06
2018-09-21T19:47:25.077Z,20.03
2018-09-21T19:49:54.411Z,19.97
2018-09-21T19:52:23.620Z,19.92
2018-09-21T19:54:53.140Z,19.93
2018-09-21T19:57:22.274Z,19.85
2018-09-21T19:59:52.139Z,19.88
2018-09-21T20:02:21.336Z,20.00
2018-09-21T20:04:50.833Z,19.95
2018-09-21T20:07:20.021Z,19.92
2018-09-21T20:09:49.385Z,19.87
2018-09-21T20:12:18.364Z,19.73
2018-09-21T20:14:47.724Z,19.63
2018-09-21T20:17:17.020Z,19.58
2018-09-21T20:19:46.129Z,19.61
2018-09-21T20:22:15.978Z,19.55
2018-09-21T20:24:45.020Z,19.45
2018-09-21T20:27:14.262Z,19.40
2018-09-21T20:29:43.624Z,19.35
2018-09-21T20:32:17.867Z,19.32
2018-09-21T20:34:47.339Z,19.26
2018-09-21T20:37:16.695Z,19.26
2018-09-21T20:39:45.731Z,19.21
2018-09-21T20:42:14.893Z,19.04
2018-09-21T20:44:44.164Z,18.87
2018-09-21T20:47:13.581Z,18.72
2018-09-21T20:49:42.626Z,18.74
2018-09-21T20:52:11.811Z,18.89
2018-09-21T20:54:40.926Z,18.89
2018-09-21T20:57:10.210Z,18.97
2018-09-21T20:59:39.508Z,19.06
2018-09-21T21:02:08.865Z,19.06
2018-09-21T21:04:38.274Z,19.06
2018-09-21T21:07:07.499Z,19.07
2018-09-21T21:09:36.675Z,19.06
2018-09-21T21:12:05.995Z,19.01
2018-09-21T21:14:35.464Z,18.95
2018-09-21T21:17:04.763Z,18.83
2018-09-21T21:19:34.015Z,18.76
2018-09-21T21:22:03.011Z,18.75
2018-09-21T21:24:32.348Z,18.67
2018-09-21T21:27:01.347Z,18.58
2018-09-21T21:29:30.636Z,18.52
2018-09-21T21:31:59.883Z,18.49
2018-09-21T21:34:29.052Z,18.43
2018-09-21T21:36:58.214Z,18.39
2018-09-21T21:39:27.533Z,18.36
2018-09-21T21:41:56.518Z,18.33
2018-09-21T21:44:25.973Z,18.30
2018-09-21T21:46:55.155Z,18.30
2018-09-21T21:49:24.355Z,18.30
2018-09-21T21:51:53.821Z,18.26
2018-09-21T21:54:22.916Z,18.27
2018-09-21T21:56:52.178Z,18.32
2018-09-21T21:59:21.454Z,18.33
2018-09-21T22:01:50.440Z,18.27
2018-09-21T22:04:19.656Z,18.41
2018-09-21T22:06:49.091Z,18.40
2018-09-21T22:09:18.255Z,18.36
2018-09-21T22:11:52.623Z,18.34
2018-09-21T22:14:21.684Z,18.33
2018-09-21T22:16:50.638Z,18.27
2018-09-21T22:19:19.904Z,18.24
2018-09-21T22:21:49.051Z,18.18
2018-09-21T22:24:18.274Z,18.18
2018-09-21T22:26:47.536Z,18.20
2018-09-21T22:29:16.460Z,18.21
2018-09-21T22:31:45.558Z,18.22
2018-09-21T22:34:14.471Z,18.17
2018-09-21T22:36:43.674Z,18.15
2018-09-21T22:39:12.907Z,18.11
2018-09-21T22:41:42.211Z,18.04
2018-09-21T22:44:11.396Z,17.96
2018-09-21T22:46:40.743Z,17.89
2018-09-21T22:49:24.823Z,17.83
2018-09-21T22:51:53.707Z,17.74
2018-09-21T22:54:23.076Z,17.66
2018-09-21T22:56:52.107Z,17.61
2018-09-21T22:59:21.481Z,17.57
2018-09-21T23:01:50.835Z,17.55
2018-09-21T23:04:20.031Z,17.48
2018-09-21T23:06:49.191Z,17.60
2018-09-21T23:09:18.376Z,17.60
2018-09-21T23:11:47.610Z,17.62
2018-09-21T23:14:16.610Z,17.74
2018-09-21T23:16:45.851Z,17.64
2018-09-21T23:19:14.735Z,17.65
2018-09-21T23:21:44.157Z,17.56
2018-09-21T23:24:13.481Z,17.64
2018-09-21T23:26:42.431Z,17.70
2018-09-21T23:29:11.672Z,17.64
2018-09-21T23:31:40.625Z,17.62
2018-09-21T23:34:10.035Z,17.57
2018-09-21T23:36:39.232Z,17.46
2018-09-21T23:39:10.016Z,17.51
2018-09-21T23:41:39.668Z,17.43
2018-09-21T23:44:09.531Z,17.34
2018-09-21T23:46:38.891Z,17.32
2018-09-21T23:49:08.101Z,17.29
2018-09-21T23:51:37.323Z,17.27
2018-09-21T23:54:06.723Z,17.18
2018-09-21T23:56:36.127Z,17.22
2018-09-21T23:59:05.427Z,17.19
